Time;durP1;ratioP1;P1;durP2;ratioP2;P2;SDS_P1;SDS_P2;PMS_P1;PMS_P2;Temp;Humidity;BMP_temperature;BMP_pressure;BME280_temperature;BME280_humidity;BME280_pressure;Samples;Min_cycle;Max_cycle;Signal;HPM_P1;HPM_P2
2023/05/02 00:02:20;;;;;;;3.33;1.53;;;22.80;99.90;;;;;;5071361;28;20650;-74
2023/05/02 00:04:47;;;;;;;1.60;1.30;;;22.60;99.90;;;;;;5072374;28;20192;-73
2023/05/02 00:07:15;;;;;;;1.87;0.97;;;22.70;99.90;;;;;;5072827;28;20172;-74
2023/05/02 00:09:42;;;;;;;1.77;1.30;;;22.90;99.90;;;;;;5072642;28;20263;-75
2023/05/02 00:12:10;;;;;;;2.70;1.10;;;22.70;99.90;;;;;;5072311;28;20680;-74
2023/05/02 00:14:38;;;;;;;3.50;1.70;;;23.10;99.90;;;;;;5072442;28;20574;-76
2023/05/02 00:17:05;;;;;;;2.27;1.50;;;23.20;99.90;;;;;;5071449;28;20183;-74
2023/05/02 00:19:37;;;;;;;6.10;1.60;;;23.10;99.90;;;;;;5071832;28;20235;-73
2023/05/02 00:25:26;;;;;;;1.40;1.20;;;24.10;99.90;;;;;;5071126;28;20616;-74
2023/05/02 00:27:55;;;;;;;1.53;1.00;;;23.80;99.90;;;;;;5072193;28;20218;-76
2023/05/02 00:30:22;;;;;;;3.90;1.33;;;23.70;99.90;;;;;;5072518;28;20180;-73
2023/05/02 00:32:50;;;;;;;3.27;1.57;;;23.60;99.90;;;;;;5071739;28;20233;-72
2023/05/02 00:35:17;;;;;;;1.90;1.20;;;24.20;99.90;;;;;;5072149;28;20597;-75
2023/05/02 00:37:44;;;;;;;3.03;1.30;;;24.20;99.90;;;;;;5072165;28;20210;-73
2023/05/02 00:40:12;;;;;;;2.93;1.40;;;24.30;99.90;;;;;;5070144;28;20223;-72
2023/05/02 00:42:40;;;;;;;2.20;1.20;;;24.20;99.90;;;;;;5071404;28;20203;-71
2023/05/02 00:45:07;;;;;;;2.90;1.23;;;24.00;99.90;;;;;;5071573;28;20176;-71
2023/05/02 00:47:35;;;;;;;3.33;1.70;;;24.00;99.90;;;;;;5070554;28;20180;-69
2023/05/02 00:50:04;;;;;;;1.73;1.07;;;24.10;99.90;;;;;;5071853;28;20192;-70
2023/05/02 00:52:32;;;;;;;4.30;1.40;;;24.40;99.90;;;;;;5071058;28;20194;-71
2023/05/02 00:55:01;;;;;;;1.73;1.20;;;24.40;99.90;;;;;;5071317;28;20168;-70
2023/05/02 00:57:29;;;;;;;1.67;1.30;;;24.60;99.90;;;;;;5071943;28;20225;-71
2023/05/02 01:03:28;;;;;;;3.97;1.13;;;24.60;99.90;;;;;;5070400;28;20651;-70
2023/05/02 01:06:15;;;;;;;2.83;1.30;;;24.30;99.90;;;;;;5070860;28;20183;-71
2023/05/02 01:09:09;;;;;;;2.20;1.30;;;23.80;99.90;;;;;;5071765;28;20183;-70
2023/05/02 01:11:51;;;;;;;2.47;1.33;;;23.90;99.90;;;;;;5052677;28;20657;-70
2023/05/02 01:14:20;;;;;;;3.03;1.20;;;24.10;98.90;;;;;;5071348;28;20227;-71
2023/05/02 01:16:49;;;;;;;3.37;1.30;;;23.70;99.20;;;;;;5071967;28;20180;-70
2023/05/02 01:19:25;;;;;;;4.63;1.67;;;23.90;98.90;;;;;;5070663;28;20213;-70
2023/05/02 01:21:54;;;;;;;3.90;1.30;;;24.00;98.60;;;;;;5071569;28;20556;-70
2023/05/02 01:24:47;;;;;;;1.70;1.40;;;24.20;99.50;;;;;;5071284;28;20229;-70
2023/05/02 01:27:42;;;;;;;1.53;1.20;;;24.40;96.10;;;;;;5071716;28;20254;-71
2023/05/02 01:30:11;;;;;;;1.67;1.27;;;24.10;98.80;;;;;;5071528;28;20184;-71
2023/05/02 01:32:40;;;;;;;2.03;1.43;;;24.10;96.00;;;;;;5069544;28;20195;-70
2023/05/02 01:35:10;;;;;;;4.03;1.40;;;24.00;97.00;;;;;;5071207;28;20188;-71
2023/05/02 01:37:38;;;;;;;2.10;1.13;;;24.30;98.50;;;;;;5071637;28;20701;-71
2023/05/02 01:40:09;;;;;;;3.07;1.33;;;24.40;97.10;;;;;;5070945;28;20207;-71
2023/05/02 01:42:38;;;;;;;6.33;1.43;;;24.70;97.50;;;;;;5071328;28;20190;-70
2023/05/02 01:45:07;;;;;;;2.57;1.17;;;25.30;95.30;;;;;;5071262;28;20186;-72
2023/05/02 01:47:37;;;;;;;1.17;1.03;;;25.40;93.20;;;;;;5069785;28;20172;-71
2023/05/02 01:50:08;;;;;;;1.97;1.17;;;25.00;92.30;;;;;;5071374;28;20180;-70
2023/05/02 01:52:39;;;;;;;1.40;1.30;;;24.10;97.10;;;;;;5071567;28;20206;-72
2023/05/02 01:55:13;;;;;;;1.20;1.10;;;23.80;97.80;;;;;;5074797;28;20179;-72
2023/05/02 01:57:43;;;;;;;1.57;1.40;;;23.70;99.80;;;;;;5075383;28;20245;-71
2023/05/02 02:00:12;;;;;;;1.47;1.37;;;23.50;99.90;;;;;;5075212;28;20211;-71
2023/05/02 02:02:45;;;;;;;3.00;1.30;;;22.90;99.90;;;;;;5073466;28;20192;-72
2023/05/02 02:05:15;;;;;;;2.33;1.53;;;22.70;99.90;;;;;;5075223;28;20226;-71
2023/05/02 02:07:44;;;;;;;1.83;1.50;;;22.50;99.90;;;;;;5075091;28;20176;-71
2023/05/02 02:10:12;;;;;;;4.30;1.87;;;22.40;99.90;;;;;;5074721;28;20237;-73
2023/05/02 02:12:42;;;;;;;3.30;1.37;;;22.50;99.90;;;;;;5075322;28;20167;-71
2023/05/02 02:15:17;;;;;;;2.87;1.33;;;22.80;99.90;;;;;;5073639;28;20243;-71
2023/05/02 02:18:01;;;;;;;1.57;1.23;;;23.90;99.90;;;;;;5074880;28;20259;-70
2023/05/02 02:20:31;;;;;;;1.70;1.20;;;24.20;99.90;;;;;;5055080;28;20220;-71
2023/05/02 02:23:05;;;;;;;1.60;1.17;;;24.40;99.90;;;;;;5072133;28;20192;-71
2023/05/02 02:28:56;;;;;;;1.57;1.00;;;24.90;98.30;;;;;;5073955;28;20334;-70
2023/05/02 02:31:29;;;;;;;1.33;1.10;;;25.00;96.10;;;;;;5074505;28;20629;-71
2023/05/02 02:33:57;;;;;;;3.17;1.50;;;24.80;98.60;;;;;;5075060;28;20210;-71
2023/05/02 02:36:41;;;;;;;1.63;0.93;;;24.60;97.30;;;;;;5074791;28;20176;-70
2023/05/02 02:39:50;;;;;;;2.80;0.93;;;23.70;99.90;;;;;;5074263;28;20203;-71
2023/05/02 02:42:51;;;;;;;2.27;1.10;;;23.00;99.90;;;;;;5069184;28;20203;-71
2023/05/02 02:45:35;;;;;;;0.80;0.80;;;23.10;99.90;;;;;;5074690;28;20176;-69
2023/05/02 02:49:04;;;;;;;1.10;0.80;;;24.00;99.90;;;;;;5074331;28;20247;-71
2023/05/02 02:51:58;;;;;;;1.07;0.60;;;23.90;98.20;;;;;;4992777;28;20226;-72
2023/05/02 02:54:39;;;;;;;0.60;0.60;;;23.90;94.30;;;;;;5059141;28;20199;-72
2023/05/02 02:57:27;;;;;;;2.03;0.97;;;24.10;95.40;;;;;;5074537;28;20544;-71
2023/05/02 03:06:39;;;;;;;0.73;0.50;;;24.00;95.00;;;;;;5073128;28;20206;-69
2023/05/02 03:09:13;;;;;;;1.77;0.60;;;23.70;95.00;;;;;;5074072;28;20631;-70
2023/05/02 03:11:41;;;;;;;2.37;0.80;;;23.50;96.40;;;;;;5073948;28;20229;-70
2023/05/02 03:14:09;;;;;;;2.47;0.70;;;23.40;97.00;;;;;;5074057;28;20176;-70
2023/05/02 03:16:41;;;;;;;3.67;0.80;;;23.60;97.40;;;;;;5073829;28;20179;-71
2023/05/02 03:19:09;;;;;;;1.13;0.83;;;23.80;97.30;;;;;;5073806;28;20212;-70
2023/05/02 03:21:37;;;;;;;1.33;0.70;;;24.60;94.30;;;;;;5073210;28;20545;-69
2023/05/02 03:24:05;;;;;;;1.20;0.90;;;24.60;92.70;;;;;;5073503;28;20204;-71
2023/05/02 03:26:33;;;;;;;0.70;0.70;;;24.60;93.60;;;;;;5073893;28;20172;-69
2023/05/02 03:29:01;;;;;;;1.37;0.70;;;24.70;93.40;;;;;;5073912;28;20173;-69
2023/05/02 03:31:28;;;;;;;0.83;0.60;;;24.80;92.40;;;;;;5073207;28;20187;-70
2023/05/02 03:33:56;;;;;;;0.60;0.50;;;24.40;93.20;;;;;;5073756;28;20632;-68
2023/05/02 03:36:24;;;;;;;1.20;0.67;;;24.80;94.80;;;;;;5073887;28;20191;-69
2023/05/02 03:38:52;;;;;;;2.20;0.80;;;24.70;91.70;;;;;;5072903;28;20211;-70
2023/05/02 03:41:20;;;;;;;0.83;0.60;;;24.60;91.70;;;;;;5073694;28;20199;-71
2023/05/02 03:43:47;;;;;;;3.43;0.83;;;24.60;92.00;;;;;;5073475;28;20176;-71
2023/05/02 03:46:15;;;;;;;5.50;0.97;;;24.40;91.90;;;;;;5073016;28;20183;-71
2023/05/02 03:48:45;;;;;;;2.00;0.77;;;24.80;94.00;;;;;;5073626;28;20187;-72
2023/05/02 03:51:13;;;;;;;1.00;0.60;;;25.00;91.00;;;;;;5074769;28;20567;-70
2023/05/02 03:53:41;;;;;;;1.13;0.57;;;24.60;92.80;;;;;;5072909;28;20176;-70
2023/05/02 03:56:09;;;;;;;1.13;0.80;;;24.40;94.00;;;;;;5073391;28;20194;-71
2023/05/02 03:58:36;;;;;;;0.90;0.60;;;24.00;94.10;;;;;;5071743;28;20199;-70
2023/05/02 04:01:13;;;;;;;2.47;0.70;;;23.50;94.30;;;;;;5072942;28;20179;-70
2023/05/02 04:03:41;;;;;;;4.00;0.70;;;23.40;98.40;;;;;;5073343;28;20171;-71
2023/05/02 04:06:09;;;;;;;0.93;0.63;;;23.30;97.80;;;;;;5071885;28;20668;-70
2023/05/02 04:08:37;;;;;;;0.77;0.60;;;23.30;98.10;;;;;;5072524;28;20183;-70
2023/05/02 04:11:05;;;;;;;0.57;0.57;;;23.40;97.40;;;;;;5072922;28;20187;-72
2023/05/02 04:13:33;;;;;;;1.33;0.70;;;23.30;98.90;;;;;;5072925;28;20215;-70
2023/05/02 04:16:01;;;;;;;1.23;0.80;;;23.10;99.90;;;;;;5071869;28;20224;-74
2023/05/02 04:18:29;;;;;;;0.50;0.50;;;23.10;99.90;;;;;;5072488;28;20187;-72
2023/05/02 04:20:57;;;;;;;0.60;0.60;;;23.50;98.10;;;;;;5072691;28;20887;-72
2023/05/02 04:23:29;;;;;;;0.77;0.43;;;24.00;94.50;;;;;;5055576;28;20287;-71
2023/05/02 04:25:57;;;;;;;1.77;0.50;;;24.20;91.90;;;;;;5072223;28;20190;-73
2023/05/02 04:28:24;;;;;;;1.90;0.50;;;24.20;90.70;;;;;;5073238;28;20176;-73
2023/05/02 04:30:52;;;;;;;1.30;0.60;;;24.30;88.10;;;;;;5072112;28;20181;-73
2023/05/02 04:33:20;;;;;;;3.97;0.57;;;24.40;90.40;;;;;;5072101;28;20549;-71
2023/05/02 04:35:48;;;;;;;1.40;0.63;;;24.70;88.30;;;;;;5072033;28;20233;-71
2023/05/02 04:38:16;;;;;;;1.43;0.50;;;25.00;86.70;;;;;;5071818;28;20271;-73
2023/05/02 04:40:44;;;;;;;2.30;0.60;;;25.00;81.90;;;;;;5072174;28;20629;-74
2023/05/02 04:43:12;;;;;;;0.80;0.50;;;24.60;85.10;;;;;;5072121;28;20183;-73
2023/05/02 04:45:40;;;;;;;1.37;0.70;;;24.60;85.70;;;;;;5071205;28;20184;-73
2023/05/02 04:48:08;;;;;;;1.17;0.40;;;24.50;84.90;;;;;;5072164;28;20172;-73
2023/05/02 04:50:35;;;;;;;5.00;0.60;;;23.90;85.90;;;;;;5071957;28;20176;-73
2023/05/02 04:53:03;;;;;;;0.67;0.50;;;23.60;91.50;;;;;;5071755;28;20186;-73
2023/05/02 04:55:31;;;;;;;1.63;0.57;;;23.20;92.90;;;;;;5071966;28;20291;-74
2023/05/02 04:57:59;;;;;;;2.63;0.50;;;23.10;94.30;;;;;;5071937;28;20573;-74
2023/05/02 05:00:27;;;;;;;0.53;0.43;;;23.20;95.30;;;;;;5071465;28;20251;-73
2023/05/02 05:02:55;;;;;;;0.60;0.60;;;23.50;96.10;;;;;;5071916;28;20176;-74
2023/05/02 05:05:22;;;;;;;2.33;0.50;;;23.60;94.20;;;;;;5071722;28;20279;-73
2023/05/02 05:07:51;;;;;;;0.70;0.50;;;23.70;94.70;;;;;;5071504;28;20225;-73
2023/05/02 05:10:19;;;;;;;0.80;0.50;;;23.80;94.00;;;;;;5071744;28;20676;-72
2023/05/02 05:12:48;;;;;;;0.23;0.23;;;23.80;94.80;;;;;;5071926;28;20202;-72
2023/05/02 05:15:16;;;;;;;2.17;0.60;;;23.60;94.40;;;;;;5071112;28;20258;-73
2023/05/02 05:17:45;;;;;;;0.50;0.50;;;23.20;95.60;;;;;;5071677;28;20184;-73
2023/05/02 05:20:12;;;;;;;1.10;0.50;;;22.90;95.80;;;;;;5071687;28;20232;-74
2023/05/02 05:22:41;;;;;;;2.40;0.40;;;22.70;97.60;;;;;;5071202;28;20178;-73
2023/05/02 05:25:11;;;;;;;2.20;0.40;;;22.60;98.40;;;;;;5071271;28;20194;-73
2023/05/02 05:27:39;;;;;;;0.63;0.50;;;22.50;99.90;;;;;;5071079;28;20184;-73
2023/05/02 05:30:07;;;;;;;1.53;0.53;;;22.30;99.90;;;;;;5069797;28;20192;-73
2023/05/02 05:32:35;;;;;;;1.23;0.53;;;22.30;99.90;;;;;;5071527;28;20191;-73
2023/05/02 05:35:03;;;;;;;2.00;0.40;;;22.20;99.90;;;;;;5071511;28;20544;-74
2023/05/02 05:37:30;;;;;;;1.03;0.53;;;22.20;99.90;;;;;;5070999;28;20187;-73
2023/05/02 05:39:58;;;;;;;0.70;0.60;;;22.00;99.90;;;;;;5071522;28;20242;-73
2023/05/02 05:42:25;;;;;;;0.57;0.50;;;21.90;99.90;;;;;;5070133;28;20282;-69
2023/05/02 05:44:53;;;;;;;4.50;0.77;;;21.80;99.90;;;;;;5070946;28;20194;-73
2023/05/02 05:47:21;;;;;;;1.70;0.50;;;21.70;99.90;;;;;;5071426;28;20214;-72
2023/05/02 05:49:52;;;;;;;1.27;0.80;;;21.50;99.90;;;;;;5071483;28;20246;-71
2023/05/02 05:52:20;;;;;;;3.80;0.83;;;21.40;99.90;;;;;;5069624;28;20578;-73
2023/05/02 05:54:47;;;;;;;1.93;0.77;;;21.30;99.90;;;;;;5072210;28;20168;-70
2023/05/02 05:57:15;;;;;;;0.70;0.53;;;21.30;99.90;;;;;;5071317;28;20182;-73
2023/05/02 05:59:42;;;;;;;0.50;0.50;;;21.20;99.90;;;;;;5068642;28;20219;-71
2023/05/02 06:02:09;;;;;;;1.33;0.53;;;21.20;99.90;;;;;;5071179;28;20183;-72
2023/05/02 06:04:37;;;;;;;0.40;0.40;;;21.10;99.90;;;;;;5071314;28;20642;-72
2023/05/02 06:07:04;;;;;;;0.73;0.50;;;21.00;99.90;;;;;;5070780;28;20259;-73
2023/05/02 06:09:32;;;;;;;1.20;0.60;;;21.00;99.90;;;;;;5070971;28;20221;-73
2023/05/02 06:12:01;;;;;;;1.60;0.50;;;21.00;99.90;;;;;;5071085;28;20263;-72
2023/05/02 06:14:28;;;;;;;0.97;0.60;;;21.00;99.90;;;;;;5070044;28;20232;-74
2023/05/02 06:16:59;;;;;;;2.67;0.70;;;21.00;99.90;;;;;;5070667;28;20176;-74
2023/05/02 06:19:27;;;;;;;1.20;0.50;;;21.00;99.90;;;;;;5070693;28;20223;-73
2023/05/02 06:21:54;;;;;;;2.60;0.60;;;20.90;99.90;;;;;;5070474;28;20665;-72
2023/05/02 06:24:21;;;;;;;1.70;0.70;;;20.90;99.90;;;;;;5071012;28;20644;-73
2023/05/02 06:26:50;;;;;;;0.90;0.50;;;20.80;99.90;;;;;;5070803;28;20207;-73
2023/05/02 06:29:18;;;;;;;1.80;0.70;;;20.70;99.90;;;;;;5070369;28;20180;-73
2023/05/02 06:31:45;;;;;;;3.20;0.70;;;20.60;99.90;;;;;;5071005;28;20183;-72
2023/05/02 06:34:12;;;;;;;2.67;0.70;;;20.60;99.90;;;;;;5070905;28;20637;-72
2023/05/02 06:36:40;;;;;;;2.40;0.80;;;20.60;99.90;;;;;;5069995;28;20593;-73
2023/05/02 06:39:07;;;;;;;1.20;0.70;;;20.60;99.90;;;;;;5071579;28;20206;-74
2023/05/02 06:41:35;;;;;;;4.80;0.90;;;20.50;99.90;;;;;;5074642;28;20175;-75
2023/05/02 06:44:02;;;;;;;1.60;1.00;;;20.50;99.90;;;;;;5072488;28;20179;-75
2023/05/02 06:46:30;;;;;;;2.83;1.00;;;20.40;99.90;;;;;;5074425;28;20171;-73
2023/05/02 06:48:57;;;;;;;7.23;1.27;;;20.30;99.90;;;;;;5074101;28;20196;-73
2023/05/02 06:51:26;;;;;;;1.67;1.10;;;20.30;99.90;;;;;;5073674;28;20196;-72
2023/05/02 06:53:53;;;;;;;2.77;1.10;;;20.30;99.90;;;;;;5074248;28;20184;-73
2023/05/02 06:56:21;;;;;;;6.43;1.40;;;20.40;99.90;;;;;;5074056;28;20184;-72
2023/05/02 06:58:49;;;;;;;2.37;0.90;;;20.30;99.90;;;;;;5073332;28;20212;-72
2023/05/02 07:01:17;;;;;;;2.73;1.07;;;20.30;99.90;;;;;;5074100;28;20191;-72
2023/05/02 07:03:46;;;;;;;2.33;0.83;;;20.30;99.90;;;;;;5072531;28;20191;-72
2023/05/02 07:06:13;;;;;;;3.57;0.77;;;20.20;99.90;;;;;;5073785;28;20176;-73
2023/05/02 07:08:41;;;;;;;1.83;0.90;;;20.20;99.90;;;;;;5072655;28;20184;-73
2023/05/02 07:11:09;;;;;;;2.67;0.90;;;20.10;99.90;;;;;;5073858;28;20644;-72
2023/05/02 07:13:36;;;;;;;2.00;1.00;;;20.10;99.90;;;;;;5073461;28;20662;-69
2023/05/02 07:16:04;;;;;;;2.23;0.90;;;20.10;99.90;;;;;;5073809;28;20250;-73
2023/05/02 07:18:31;;;;;;;2.10;0.70;;;20.00;99.90;;;;;;5073658;28;20258;-69
2023/05/02 07:21:00;;;;;;;2.10;0.83;;;19.90;99.90;;;;;;5073411;28;20633;-72
2023/05/02 07:23:27;;;;;;;4.03;1.10;;;19.90;99.90;;;;;;5073297;28;20172;-73
2023/05/02 07:25:55;;;;;;;6.80;1.10;;;19.80;99.90;;;;;;5073305;28;20603;-75
2023/05/02 07:28:22;;;;;;;3.00;1.07;;;19.70;99.90;;;;;;5073184;28;20634;-75
2023/05/02 07:30:49;;;;;;;1.27;0.90;;;19.60;99.90;;;;;;5072144;28;20545;-74
2023/05/02 07:33:17;;;;;;;0.93;0.90;;;19.50;99.90;;;;;;5073390;28;20554;-75
2023/05/02 07:35:44;;;;;;;1.50;1.00;;;19.40;99.90;;;;;;5073121;28;20267;-74
2023/05/02 07:38:12;;;;;;;2.13;1.07;;;19.30;99.90;;;;;;5072333;28;20274;-74
2023/05/02 07:40:39;;;;;;;1.47;1.00;;;19.10;99.90;;;;;;5053470;28;20227;-77
2023/05/02 07:43:07;;;;;;;1.20;1.00;;;19.00;99.90;;;;;;5053152;28;20258;-71
2023/05/02 07:45:34;;;;;;;2.43;1.20;;;19.00;99.90;;;;;;5053685;28;20528;-76
2023/05/02 07:48:02;;;;;;;5.17;1.30;;;18.80;99.90;;;;;;5053494;28;20199;-73
2023/05/02 07:50:30;;;;;;;2.47;1.87;;;18.70;99.90;;;;;;5056744;28;20177;-76
2023/05/02 07:52:57;;;;;;;2.13;1.07;;;18.60;99.90;;;;;;5072498;28;20277;-73
2023/05/02 07:55:29;;;;;;;2.33;1.10;;;18.60;99.90;;;;;;5072865;28;20191;-75
2023/05/02 07:57:56;;;;;;;4.20;1.30;;;18.60;99.90;;;;;;5072765;28;20205;-76
2023/05/02 08:00:24;;;;;;;2.63;1.27;;;18.60;99.90;;;;;;5073329;28;20222;-78
2023/05/02 08:02:51;;;;;;;1.67;1.23;;;18.60;99.90;;;;;;5073360;28;20186;-74
2023/05/02 08:05:19;;;;;;;1.80;1.30;;;18.50;99.90;;;;;;5072227;28;20283;-74
2023/05/02 08:07:46;;;;;;;2.87;1.57;;;18.50;99.90;;;;;;5073041;28;20237;-73
2023/05/02 08:10:13;;;;;;;4.00;1.60;;;18.50;99.90;;;;;;5072819;28;20175;-74
2023/05/02 08:12:41;;;;;;;1.70;1.27;;;18.60;99.90;;;;;;5072564;28;20233;-70
2023/05/02 08:15:12;;;;;;;4.20;1.50;;;18.60;99.90;;;;;;5072817;28;20227;-71
2023/05/02 08:17:40;;;;;;;3.53;2.03;;;18.60;99.90;;;;;;5072952;28;20205;-73
2023/05/02 08:20:08;;;;;;;4.70;2.50;;;18.60;99.90;;;;;;5072365;28;20305;-75
2023/05/02 08:22:35;;;;;;;3.67;2.43;;;18.60;99.90;;;;;;5072577;28;20211;-73
2023/05/02 08:25:03;;;;;;;5.30;2.60;;;18.70;99.90;;;;;;5072393;28;20549;-72
2023/05/02 08:27:30;;;;;;;5.27;2.43;;;18.70;99.90;;;;;;5072241;28;20298;-75
2023/05/02 08:29:57;;;;;;;4.10;2.30;;;18.70;99.90;;;;;;5071251;28;20215;-73
2023/05/02 08:32:25;;;;;;;3.23;2.00;;;18.70;99.90;;;;;;5072554;28;20184;-73
2023/05/02 08:34:56;;;;;;;3.60;2.17;;;18.70;99.90;;;;;;5072087;28;20210;-75
2023/05/02 08:37:23;;;;;;;4.80;2.27;;;18.80;99.90;;;;;;5071470;28;20201;-74
2023/05/02 08:39:51;;;;;;;2.80;2.07;;;18.80;99.90;;;;;;5072297;28;20574;-72
2023/05/02 08:42:19;;;;;;;4.30;2.43;;;18.80;99.90;;;;;;5071845;28;20318;-73
2023/05/02 08:44:48;;;;;;;3.03;2.10;;;18.90;99.90;;;;;;5071030;28;20190;-73
2023/05/02 08:47:17;;;;;;;3.77;2.03;;;18.90;99.90;;;;;;5072352;28;20183;-75
2023/05/02 08:49:45;;;;;;;5.10;2.17;;;18.90;99.90;;;;;;5071829;28;20191;-73
2023/05/02 08:52:13;;;;;;;3.70;1.87;;;18.70;99.90;;;;;;5072077;28;20177;-75
2023/05/02 08:54:41;;;;;;;5.17;1.90;;;18.60;99.90;;;;;;5072212;28;20211;-74
2023/05/02 08:57:09;;;;;;;3.93;2.53;;;18.50;99.90;;;;;;5071780;28;20623;-74
2023/05/02 08:59:36;;;;;;;3.13;2.13;;;18.50;99.90;;;;;;5071972;28;20679;-72
2023/05/02 09:02:36;;;;;;;3.73;2.03;;;18.40;99.90;;;;;;5071609;28;20187;-72
2023/05/02 09:05:07;;;;;;;2.60;1.70;;;18.30;99.90;;;;;;5071706;28;20270;-73
2023/05/02 09:07:48;;;;;;;2.80;1.60;;;18.30;99.90;;;;;;5072110;28;20188;-71
2023/05/02 09:10:16;;;;;;;2.37;1.33;;;18.30;99.90;;;;;;5071875;28;20237;-73
2023/05/02 09:12:43;;;;;;;4.87;1.40;;;18.20;99.90;;;;;;5071670;28;20168;-74
2023/05/02 09:15:15;;;;;;;2.93;1.60;;;18.20;99.90;;;;;;5071739;28;20257;-74
2023/05/02 09:17:45;;;;;;;2.87;1.37;;;18.10;99.90;;;;;;5071957;28;20176;-72
2023/05/02 09:20:14;;;;;;;1.90;1.30;;;18.00;99.90;;;;;;5071000;28;20647;-72
2023/05/02 09:22:53;;;;;;;2.83;1.20;;;18.00;99.90;;;;;;5071886;28;20168;-74
2023/05/02 09:25:21;;;;;;;3.17;1.13;;;17.90;99.90;;;;;;5071479;28;20218;-74
2023/05/02 09:27:57;;;;;;;1.80;1.20;;;17.70;99.90;;;;;;5071340;28;20182;-72
2023/05/02 09:30:26;;;;;;;2.93;1.37;;;17.60;99.90;;;;;;5070164;28;20184;-74
2023/05/02 09:32:56;;;;;;;1.37;1.13;;;17.40;99.90;;;;;;5070230;28;20183;-71
2023/05/02 09:35:23;;;;;;;1.13;1.00;;;17.20;99.90;;;;;;5071166;28;20181;-72
2023/05/02 09:37:52;;;;;;;2.63;1.80;;;17.10;99.90;;;;;;5071615;28;20233;-73
2023/05/02 09:40:20;;;;;;;1.30;1.00;;;16.90;99.90;;;;;;5070869;28;20644;-71
2023/05/02 09:42:47;;;;;;;2.27;1.30;;;16.90;99.90;;;;;;5071753;28;20581;-73
2023/05/02 09:45:27;;;;;;;1.83;1.30;;;16.80;99.90;;;;;;5071435;28;20230;-76
2023/05/02 09:47:54;;;;;;;2.23;1.50;;;16.60;99.90;;;;;;5070710;28;20189;-75
2023/05/02 09:50:49;;;;;;;1.97;1.20;;;16.50;99.90;;;;;;5070851;28;20204;-73
2023/05/02 09:53:17;;;;;;;1.77;1.30;;;16.30;99.90;;;;;;5070080;28;20195;-73
2023/05/02 09:55:44;;;;;;;2.90;1.40;;;16.20;99.90;;;;;;5071116;28;20172;-74
2023/05/02 09:58:22;;;;;;;1.93;1.20;;;16.10;99.90;;;;;;5070065;28;20184;-72
2023/05/02 10:00:53;;;;;;;2.20;1.50;;;16.10;99.90;;;;;;5070431;28;20215;-74
2023/05/02 10:03:24;;;;;;;2.27;1.40;;;16.00;99.90;;;;;;5070525;28;20199;-73
2023/05/02 10:05:55;;;;;;;2.73;1.00;;;16.00;99.90;;;;;;5070729;28;20637;-72
2023/05/02 10:08:26;;;;;;;4.43;1.40;;;15.80;99.90;;;;;;5070877;28;20268;-71
2023/05/02 10:10:56;;;;;;;2.07;1.40;;;15.70;99.90;;;;;;5069847;28;20276;-74
2023/05/02 10:13:31;;;;;;;3.93;1.23;;;15.60;99.90;;;;;;5070875;28;20234;-73
2023/05/02 10:16:00;;;;;;;9.57;1.27;;;15.50;99.90;;;;;;5074762;28;20262;-74
2023/05/02 10:18:29;;;;;;;0.57;0.50;;;15.80;99.90;;;;;;5074016;28;20180;-74
2023/05/02 10:21:00;;;;;;;1.43;0.80;;;16.20;99.90;;;;;;5074877;28;20180;-74
2023/05/02 10:23:29;;;;;;;2.33;0.80;;;16.50;99.90;;;;;;5074580;28;20182;-72
2023/05/02 10:25:58;;;;;;;1.10;0.80;;;16.50;99.90;;;;;;5073642;28;20192;-74
2023/05/02 10:28:27;;;;;;;1.40;1.00;;;16.40;99.90;;;;;;5074774;28;20180;-74
2023/05/02 10:30:55;;;;;;;2.50;1.00;;;16.20;99.90;;;;;;5074575;28;20633;-75
2023/05/02 10:33:23;;;;;;;1.20;0.80;;;16.00;99.90;;;;;;5053784;28;20191;-74
2023/05/02 10:35:50;;;;;;;2.23;0.90;;;16.00;99.90;;;;;;5064447;28;20272;-73
2023/05/02 10:38:21;;;;;;;1.40;1.00;;;15.80;99.90;;;;;;5074179;28;20180;-71
2023/05/02 10:40:55;;;;;;;3.50;1.00;;;15.60;99.90;;;;;;5073578;28;20212;-72
2023/05/02 10:43:25;;;;;;;2.40;1.27;;;15.50;99.90;;;;;;5074430;28;20221;-75
2023/05/02 10:45:53;;;;;;;1.83;1.20;;;15.40;99.90;;;;;;5073726;28;20233;-74
2023/05/02 10:48:26;;;;;;;2.47;1.10;;;15.30;99.90;;;;;;5073875;28;20164;-73
2023/05/02 10:51:00;;;;;;;2.10;1.30;;;15.20;99.90;;;;;;5073656;28;20180;-76
2023/05/02 10:53:43;;;;;;;2.93;1.50;;;15.10;99.90;;;;;;5073811;28;20634;-75
2023/05/02 10:56:28;;;;;;;2.77;1.20;;;15.00;99.90;;;;;;5073304;28;20715;-74
2023/05/02 11:03:27;;;;;;;2.13;1.27;;;14.90;99.90;;;;;;5051138;28;20251;-74
2023/05/02 11:06:06;;;;;;;4.00;1.77;;;14.80;99.90;;;;;;5054805;28;20209;-75
2023/05/02 11:08:34;;;;;;;2.40;1.37;;;14.60;99.90;;;;;;5071493;28;20192;-75
2023/05/02 11:11:41;;;;;;;3.40;1.67;;;14.50;99.90;;;;;;5070782;28;20187;-74
2023/05/02 11:14:32;;;;;;;2.00;1.23;;;14.40;99.90;;;;;;5071321;28;20185;-73
2023/05/02 11:16:59;;;;;;;2.33;1.50;;;14.30;99.90;;;;;;5070560;28;20762;-71
2023/05/02 11:19:28;;;;;;;3.23;1.47;;;14.20;99.90;;;;;;5071411;28;20557;-74
2023/05/02 11:22:27;;;;;;;1.47;1.10;;;14.20;99.90;;;;;;5071166;28;20187;-74
2023/05/02 11:24:54;;;;;;;2.83;1.57;;;14.20;99.90;;;;;;5070367;28;20658;-75
2023/05/02 11:27:36;;;;;;;2.50;1.80;;;14.20;99.90;;;;;;5070345;28;20184;-76
2023/05/02 11:30:08;;;;;;;2.47;1.60;;;14.10;99.90;;;;;;5071158;28;20649;-73
2023/05/02 11:32:44;;;;;;;2.90;1.80;;;14.00;99.90;;;;;;5070688;28;20254;-71
2023/05/02 11:35:22;;;;;;;1.87;1.60;;;14.00;99.90;;;;;;5051158;28;20185;-74
2023/05/02 11:38:10;;;;;;;2.20;1.43;;;13.90;99.90;;;;;;5061059;28;20256;-70
2023/05/02 11:40:38;;;;;;;3.53;1.97;;;13.80;99.90;;;;;;5072962;28;20629;-74
2023/05/02 11:43:16;;;;;;;2.97;1.90;;;13.70;99.90;;;;;;5073119;28;20258;-72
2023/05/02 11:45:44;;;;;;;7.10;2.23;;;13.60;99.90;;;;;;5073140;28;20180;-73
2023/05/02 11:48:15;;;;;;;8.20;1.80;;;13.60;99.90;;;;;;5072639;28;20559;-73
2023/05/02 11:51:03;;;;;;;2.77;1.80;;;13.60;99.90;;;;;;5072429;28;20215;-75
2023/05/02 11:53:31;;;;;;;4.10;1.93;;;13.50;99.90;;;;;;5071188;28;20602;-71
2023/05/02 11:56:02;;;;;;;3.07;1.60;;;13.50;99.90;;;;;;5073118;28;20199;-74
2023/05/02 11:58:32;;;;;;;3.73;1.83;;;13.40;99.90;;;;;;5072966;28;20263;-71
2023/05/02 12:01:12;;;;;;;2.77;2.00;;;13.40;99.90;;;;;;5071946;28;20648;-74
2023/05/02 12:03:40;;;;;;;4.23;1.70;;;13.40;99.90;;;;;;5072606;28;20205;-72
2023/05/02 12:06:14;;;;;;;4.87;2.50;;;13.40;99.90;;;;;;5072942;28;20182;-74
2023/05/02 12:08:44;;;;;;;10.63;2.40;;;13.30;99.90;;;;;;5072400;28;20180;-74
2023/05/02 12:11:16;;;;;;;3.13;1.80;;;13.30;99.90;;;;;;5072855;28;20186;-73
2023/05/02 12:13:48;;;;;;;3.53;2.17;;;13.20;99.90;;;;;;5072731;28;20198;-75
2023/05/02 12:16:16;;;;;;;2.97;1.93;;;13.20;99.90;;;;;;5072203;28;20230;-74
2023/05/02 12:18:44;;;;;;;3.47;1.90;;;13.20;99.90;;;;;;5072696;28;20176;-73
2023/05/02 12:21:12;;;;;;;6.17;2.10;;;13.20;99.90;;;;;;5072714;28;20172;-73
2023/05/02 12:23:41;;;;;;;3.47;1.90;;;13.10;99.90;;;;;;5072167;28;20211;-72
2023/05/02 12:26:24;;;;;;;2.43;1.90;;;13.10;99.90;;;;;;5072540;28;20526;-72
2023/05/02 12:28:57;;;;;;;3.10;1.87;;;13.00;99.90;;;;;;5072047;28;20183;-74
2023/05/02 12:31:30;;;;;;;4.13;2.20;;;12.90;99.90;;;;;;5072679;28;20187;-74
2023/05/02 12:33:59;;;;;;;5.23;1.83;;;12.90;99.90;;;;;;5073665;28;20195;-73
2023/05/02 12:36:32;;;;;;;2.13;1.60;;;12.80;99.90;;;;;;5072249;28;20182;-71
2023/05/02 12:39:03;;;;;;;2.80;1.80;;;12.70;99.90;;;;;;5073524;28;20207;-75
2023/05/02 12:41:36;;;;;;;4.07;1.57;;;12.70;99.90;;;;;;5073120;28;20191;-73
2023/05/02 12:44:04;;;;;;;2.87;1.77;;;12.60;99.90;;;;;;5072198;28;20641;-73
2023/05/02 12:46:32;;;;;;;3.57;1.70;;;12.60;99.90;;;;;;5073218;28;20207;-73
2023/05/02 12:49:12;;;;;;;3.60;1.60;;;12.60;99.90;;;;;;5072703;28;20636;-75
2023/05/02 12:51:41;;;;;;;3.90;1.37;;;12.60;99.90;;;;;;5072428;28;20643;-72
2023/05/02 12:54:08;;;;;;;6.83;2.13;;;12.50;99.90;;;;;;5072585;28;20191;-76
2023/05/02 12:56:42;;;;;;;4.50;1.73;;;12.50;99.90;;;;;;5072687;28;20172;-77
2023/05/02 12:59:32;;;;;;;3.53;1.50;;;12.40;99.90;;;;;;5072433;28;20210;-75
2023/05/02 13:01:59;;;;;;;4.17;2.00;;;12.40;99.90;;;;;;5071605;28;20192;-76
2023/05/02 13:04:40;;;;;;;3.03;1.60;;;12.40;99.90;;;;;;5071906;28;20183;-74
2023/05/02 13:07:08;;;;;;;2.07;1.67;;;12.30;99.90;;;;;;5073038;28;20186;-74
2023/05/02 13:09:36;;;;;;;2.40;1.50;;;12.30;99.90;;;;;;5072398;28;20569;-73
2023/05/02 13:12:04;;;;;;;3.63;1.80;;;12.30;99.90;;;;;;5071872;28;20187;-71
2023/05/02 13:14:32;;;;;;;3.97;1.70;;;12.20;99.90;;;;;;5072189;28;20231;-73
2023/05/02 13:17:02;;;;;;;2.90;1.80;;;12.20;99.90;;;;;;5072639;28;20211;-73
2023/05/02 13:19:30;;;;;;;3.83;1.80;;;12.20;99.90;;;;;;5073088;28;20215;-74
2023/05/02 13:21:57;;;;;;;6.60;2.30;;;12.20;99.90;;;;;;5062343;28;20184;-72
2023/05/02 13:24:25;;;;;;;5.03;1.70;;;12.10;99.90;;;;;;5071936;28;20194;-70
2023/05/02 13:26:52;;;;;;;5.90;1.70;;;12.10;99.90;;;;;;5072512;28;20210;-73
2023/05/02 13:29:20;;;;;;;5.23;1.87;;;12.10;99.90;;;;;;5070904;28;20191;-68